Time;durP1;ratioP1;P1;durP2;ratioP2;P2;SDS_P1;SDS_P2;PMS_P1;PMS_P2;Temp;Humidity;BMP_temperature;BMP_pressure;BME280_temperature;BME280_humidity;BME280_pressure;Samples;Min_cycle;Max_cycle;Signal;HPM_P1;HPM_P2
2023/08/18 00:01:22;;;;;;;19.23;17.30;;;;;;;18.07;100.00;101702.66;5112317;28;20069;-53
2023/08/18 00:03:47;;;;;;;19.80;17.88;;;;;;;17.70;100.00;101641.50;5112708;28;20084;-52
2023/08/18 00:06:13;;;;;;;18.75;16.98;;;;;;;17.56;100.00;101614.69;5111873;28;20206;-54
2023/08/18 00:08:38;;;;;;;20.35;18.50;;;;;;;18.11;100.00;101704.25;5112384;28;20043;-50
2023/08/18 00:11:04;;;;;;;18.63;16.83;;;;;;;18.05;100.00;101693.91;5093751;28;20039;-53
2023/08/18 00:13:29;;;;;;;18.33;16.40;;;;;;;18.15;100.00;101695.19;5112636;28;20070;-51
2023/08/18 00:15:55;;;;;;;18.88;17.17;;;;;;;18.11;100.00;101690.94;5093743;28;20035;-49
2023/08/18 00:18:20;;;;;;;19.70;17.90;;;;;;;17.75;100.00;101644.78;5112498;28;20386;-50
2023/08/18 00:20:45;;;;;;;20.85;18.90;;;;;;;18.05;100.00;101690.38;5112166;28;20402;-48
2023/08/18 00:23:11;;;;;;;18.70;17.10;;;;;;;18.06;100.00;101690.31;5094045;28;20055;-50
2023/08/18 00:25:36;;;;;;;18.67;17.08;;;;;;;17.97;100.00;101672.09;5111067;28;20475;-49
2023/08/18 00:28:02;;;;;;;19.35;17.65;;;;;;;17.87;100.00;101653.06;5111956;28;20054;-49
2023/08/18 00:30:28;;;;;;;18.73;17.00;;;;;;;18.00;100.00;101674.63;5112304;28;20112;-49
2023/08/18 00:32:53;;;;;;;17.67;16.17;;;;;;;17.99;100.00;101673.75;5112197;28;20023;-50
2023/08/18 00:35:18;;;;;;;19.92;17.90;;;;;;;17.94;100.00;101666.94;5112080;28;20039;-49
2023/08/18 00:37:45;;;;;;;18.35;16.65;;;;;;;17.63;100.00;101621.47;5093447;28;20032;-49
2023/08/18 00:40:11;;;;;;;17.85;16.15;;;;;;;17.84;100.00;101661.19;5093499;28;20035;-48
2023/08/18 00:42:36;;;;;;;18.23;16.55;;;;;;;17.81;100.00;101663.13;5112445;28;20036;-53
2023/08/18 00:45:02;;;;;;;18.92;17.13;;;;;;;17.21;100.00;101584.44;5111752;28;20437;-55
2023/08/18 00:47:28;;;;;;;18.10;16.45;;;;;;;17.18;100.00;101585.47;5112205;28;20067;-48
2023/08/18 00:49:54;;;;;;;18.00;16.42;;;;;;;17.73;100.00;101679.50;5112085;28;20057;-49
2023/08/18 00:52:20;;;;;;;17.75;15.93;;;;;;;17.63;100.00;101658.72;5112056;28;20040;-53
2023/08/18 00:54:47;;;;;;;16.55;15.00;;;;;;;17.61;100.00;101641.94;5111634;28;20039;-50
2023/08/18 00:57:12;;;;;;;17.15;15.60;;;;;;;17.51;100.00;101616.69;5112066;28;20031;-52
2023/08/18 00:59:37;;;;;;;17.00;15.50;;;;;;;17.69;100.00;101651.28;5111780;28;20035;-50
2023/08/18 01:02:04;;;;;;;17.52;15.82;;;;;;;17.78;100.00;101665.94;5111764;28;20039;-50
2023/08/18 01:04:31;;;;;;;15.75;14.27;;;;;;;17.29;100.00;101571.63;5112036;28;20097;-53
2023/08/18 01:06:56;;;;;;;15.82;14.18;;;;;;;17.89;100.00;101671.63;5093620;28;20114;-52
2023/08/18 01:09:22;;;;;;;15.00;13.48;;;;;;;17.52;100.00;101589.13;5111477;28;20111;-53
2023/08/18 01:12:00;;;;;;;15.63;14.20;;;;;;;17.97;100.00;101664.13;5111695;28;20153;-49
2023/08/18 01:14:50;;;;;;;15.52;14.05;;;;;;;17.89;100.00;101653.81;5111929;28;20035;-49
2023/08/18 01:17:22;;;;;;;14.65;13.43;;;;;;;17.54;100.00;101595.25;5093608;28;20501;-51
2023/08/18 01:19:48;;;;;;;14.52;13.27;;;;;;;17.56;100.00;101598.72;5093206;28;20031;-54
2023/08/18 01:22:16;;;;;;;14.90;13.63;;;;;;;17.54;100.00;101593.47;5111890;28;20046;-54
2023/08/18 01:24:42;;;;;;;14.70;13.32;;;;;;;17.95;100.00;101668.63;5111620;28;20028;-55
2023/08/18 01:27:07;;;;;;;15.00;13.70;;;;;;;17.95;100.00;101676.63;5111930;28;20031;-52
2023/08/18 01:29:32;;;;;;;14.27;13.00;;;;;;;17.52;100.00;101608.63;5111505;28;20055;-49
2023/08/18 01:32:00;;;;;;;14.65;13.27;;;;;;;17.93;100.00;101681.19;5093088;28;20478;-55
2023/08/18 01:34:27;;;;;;;14.50;13.20;;;;;;;17.40;100.00;101574.63;5092847;28;20034;-54
2023/08/18 01:36:55;;;;;;;14.65;13.35;;;;;;;17.63;100.00;101629.44;5096683;28;20114;-53
2023/08/18 01:39:21;;;;;;;14.10;12.70;;;;;;;17.94;100.00;101678.47;5096578;28;20063;-52
2023/08/18 01:41:46;;;;;;;13.32;12.13;;;;;;;17.91;100.00;101669.75;5096876;28;20117;-52
2023/08/18 01:44:15;;;;;;;12.65;11.55;;;;;;;17.85;100.00;101660.25;5096426;28;20481;-50
2023/08/18 01:46:41;;;;;;;14.35;13.05;;;;;;;17.43;100.00;101593.97;5096444;28;20406;-55
2023/08/18 01:49:07;;;;;;;13.68;12.32;;;;;;;17.85;100.00;101676.25;5115373;28;20032;-53
2023/08/18 01:51:32;;;;;;;13.35;12.20;;;;;;;17.79;100.00;101670.34;5096606;28;20039;-50
2023/08/18 01:53:57;;;;;;;14.38;13.18;;;;;;;17.72;100.00;101659.13;5115046;28;20035;-52
2023/08/18 01:56:23;;;;;;;13.80;12.50;;;;;;;17.21;100.00;101577.34;5096606;28;20060;-49
2023/08/18 01:58:48;;;;;;;13.98;12.77;;;;;;;17.64;100.00;101668.44;5114907;28;20046;-49
2023/08/18 02:01:13;;;;;;;14.50;13.10;;;;;;;17.17;100.00;101593.50;5114203;28;20036;-56
2023/08/18 02:03:40;;;;;;;13.75;12.55;;;;;;;17.41;100.00;101633.09;5114871;28;20140;-48
2023/08/18 02:06:05;;;;;;;14.00;12.60;;;;;;;17.53;100.00;101666.25;5096454;28;20028;-51
2023/08/18 02:08:30;;;;;;;14.02;12.88;;;;;;;17.52;100.00;101659.19;5114636;28;20038;-55
2023/08/18 02:11:05;;;;;;;13.40;12.20;;;;;;;16.99;100.00;101562.47;5095822;28;20914;-56
2023/08/18 02:13:31;;;;;;;14.55;13.25;;;;;;;17.52;100.00;101651.22;5079382;28;20124;-53
2023/08/18 02:15:56;;;;;;;14.25;12.80;;;;;;;17.20;100.00;101598.66;5095990;28;20497;-53
2023/08/18 02:18:22;;;;;;;13.98;12.80;;;;;;;17.01;100.00;101566.78;5114839;28;20146;-53
2023/08/18 02:20:54;;;;;;;14.52;13.23;;;;;;;17.39;100.00;101637.66;5114367;28;20046;-53
2023/08/18 02:23:19;;;;;;;15.13;13.73;;;;;;;17.35;100.00;101643.19;5095979;28;20035;-50
2023/08/18 02:25:44;;;;;;;15.73;14.30;;;;;;;17.14;100.00;101607.81;5114395;28;20447;-54
2023/08/18 02:28:09;;;;;;;15.57;14.27;;;;;;;17.18;100.00;101635.13;5114287;28;20062;-50
2023/08/18 02:30:35;;;;;;;15.82;14.32;;;;;;;17.12;100.00;101630.09;5113984;28;20471;-51
2023/08/18 02:33:00;;;;;;;15.93;13.52;;;;;;;17.02;100.00;101629.66;5114449;28;20067;-51
2023/08/18 02:35:25;;;;;;;16.05;14.40;;;;;;;16.97;100.00;101626.34;5113599;28;20399;-52
2023/08/18 02:37:51;;;;;;;15.98;14.38;;;;;;;16.92;100.00;101633.69;5114410;28;20046;-51
2023/08/18 02:40:17;;;;;;;17.50;15.95;;;;;;;16.87;100.00;101625.03;5095662;28;20035;-53
2023/08/18 02:42:42;;;;;;;17.40;15.73;;;;;;;16.31;100.00;101516.00;5113801;28;20032;-51
2023/08/18 02:45:07;;;;;;;18.55;16.73;;;;;;;16.96;100.00;101627.28;5113901;28;20111;-51
2023/08/18 02:47:34;;;;;;;16.67;15.18;;;;;;;16.52;100.00;101538.91;5113348;28;20453;-53
2023/08/18 02:49:59;;;;;;;17.10;15.48;;;;;;;16.99;100.00;101623.66;5114104;28;20201;-54
2023/08/18 02:52:24;;;;;;;17.33;15.60;;;;;;;16.55;100.00;101532.66;5095321;28;20059;-53
2023/08/18 02:54:50;;;;;;;16.63;14.98;;;;;;;17.03;100.00;101609.25;5095424;28;20039;-53
2023/08/18 02:57:15;;;;;;;17.48;15.90;;;;;;;17.06;100.00;101607.31;5113478;28;20114;-53
2023/08/18 02:59:40;;;;;;;16.42;14.93;;;;;;;17.02;100.00;101596.88;5113507;28;20478;-51
2023/08/18 03:02:06;;;;;;;17.60;16.00;;;;;;;16.98;100.00;101595.31;5113405;28;20039;-50
2023/08/18 03:04:31;;;;;;;16.90;15.20;;;;;;;16.57;100.00;101539.63;5113767;28;20030;-55
2023/08/18 03:06:56;;;;;;;18.52;16.80;;;;;;;16.57;100.00;101531.63;5113319;28;20028;-48
2023/08/18 03:09:22;;;;;;;17.58;15.88;;;;;;;16.88;100.00;101585.09;5113597;28;20480;-52
2023/08/18 03:11:47;;;;;;;17.42;15.73;;;;;;;16.50;100.00;101502.69;5113070;28;20039;-53
2023/08/18 03:14:13;;;;;;;17.02;15.38;;;;;;;16.95;100.00;101596.31;5113117;28;20027;-56
2023/08/18 03:16:38;;;;;;;17.40;15.80;;;;;;;16.86;100.00;101579.00;5113234;28;20032;-51
2023/08/18 03:19:04;;;;;;;17.63;15.93;;;;;;;16.35;100.00;101493.66;5113413;28;20470;-50
2023/08/18 03:21:29;;;;;;;17.77;15.90;;;;;;;16.84;100.00;101574.69;5112716;28;20043;-55
2023/08/18 03:23:54;;;;;;;17.45;15.75;;;;;;;16.69;100.00;101552.34;5113360;28;20166;-53
2023/08/18 03:26:20;;;;;;;19.42;17.50;;;;;;;16.95;100.00;101593.66;5113052;28;20039;-56
2023/08/18 03:28:45;;;;;;;19.10;17.10;;;;;;;16.89;100.00;101575.34;5113043;28;20039;-52
2023/08/18 03:31:11;;;;;;;18.63;16.92;;;;;;;16.94;100.00;101583.94;5112791;28;20035;-53
2023/08/18 03:33:36;;;;;;;20.30;18.33;;;;;;;16.87;100.00;101575.38;5112969;28;20029;-49
2023/08/18 03:36:02;;;;;;;20.02;18.13;;;;;;;16.50;100.00;101516.00;5113124;28;20082;-53
2023/08/18 03:38:28;;;;;;;19.08;17.20;;;;;;;16.42;100.00;101502.19;5113250;28;20039;-52
2023/08/18 03:40:59;;;;;;;19.67;17.77;;;;;;;16.52;100.00;101524.78;5112728;28;20498;-53
2023/08/18 03:43:24;;;;;;;19.75;17.85;;;;;;;16.94;100.00;101607.88;5112752;28;20043;-48
2023/08/18 03:45:49;;;;;;;19.67;17.80;;;;;;;16.85;100.00;101589.69;5094821;28;20048;-51
2023/08/18 03:48:15;;;;;;;17.83;16.00;;;;;;;16.97;100.00;101591.78;5113034;28;20035;-50
2023/08/18 03:50:40;;;;;;;17.83;16.02;;;;;;;16.98;100.00;101592.66;5112856;28;20039;-50
2023/08/18 03:53:06;;;;;;;17.45;15.75;;;;;;;17.02;100.00;101604.84;5112706;28;20523;-52
2023/08/18 03:55:31;;;;;;;16.90;15.25;;;;;;;16.61;100.00;101540.31;5094437;28;20076;-53
2023/08/18 03:57:57;;;;;;;16.20;14.80;;;;;;;16.93;100.00;101592.84;5113017;28;20039;-54
2023/08/18 04:00:22;;;;;;;16.48;14.98;;;;;;;16.47;100.00;101518.78;5112374;28;20038;-56
2023/08/18 04:02:47;;;;;;;16.80;15.20;;;;;;;16.48;100.00;101516.06;5112663;28;20160;-51
2023/08/18 04:05:13;;;;;;;17.23;15.52;;;;;;;17.00;100.00;101602.28;5094423;28;20444;-54
2023/08/18 04:07:39;;;;;;;19.08;17.13;;;;;;;16.85;100.00;101579.06;5112556;28;20047;-52
2023/08/18 04:10:05;;;;;;;17.63;15.82;;;;;;;16.92;100.00;101608.91;5112696;28;20036;-52
2023/08/18 04:12:31;;;;;;;17.48;15.73;;;;;;;16.44;100.00;101511.81;5112287;28;20058;-53
2023/08/18 04:14:56;;;;;;;17.92;16.27;;;;;;;16.42;100.00;101508.38;5112479;28;20462;-54
2023/08/18 04:17:21;;;;;;;18.85;16.95;;;;;;;16.88;100.00;101594.88;5112653;28;20482;-50
2023/08/18 04:19:47;;;;;;;17.73;15.93;;;;;;;16.64;100.00;101564.09;5112431;28;20032;-52
2023/08/18 04:22:12;;;;;;;17.80;15.90;;;;;;;16.79;100.00;101608.59;5094100;28;20031;-53
2023/08/18 04:24:37;;;;;;;17.52;15.70;;;;;;;16.80;100.00;101600.56;5112292;28;20036;-51
2023/08/18 04:27:03;;;;;;;20.55;17.15;;;;;;;16.33;100.00;101527.41;5076269;28;20360;-50
2023/08/18 04:29:29;;;;;;;17.25;15.63;;;;;;;16.84;100.00;101598.63;5112306;28;20048;-50
2023/08/18 04:31:54;;;;;;;16.63;14.93;;;;;;;16.78;100.00;101585.63;5112332;28;20032;-48
2023/08/18 04:34:20;;;;;;;16.60;14.90;;;;;;;16.82;100.00;101598.69;5112318;28;20035;-52
2023/08/18 04:36:45;;;;;;;16.73;14.82;;;;;;;16.71;100.00;101602.75;5093861;28;20103;-51
2023/08/18 04:39:11;;;;;;;16.42;14.90;;;;;;;16.74;100.00;101610.59;5111898;28;20036;-50
2023/08/18 04:41:36;;;;;;;15.43;13.93;;;;;;;16.73;100.00;101609.72;5093447;28;20039;-52
2023/08/18 04:44:03;;;;;;;15.23;13.63;;;;;;;16.59;100.00;101576.72;5093740;28;20043;-53
2023/08/18 04:46:28;;;;;;;15.40;13.93;;;;;;;16.71;100.00;101608.06;5111720;28;20490;-50
2023/08/18 04:48:54;;;;;;;15.52;14.02;;;;;;;16.27;100.00;101527.69;5112228;28;20168;-52
2023/08/18 04:51:19;;;;;;;15.80;14.20;;;;;;;16.36;100.00;101542.34;5112163;28;20027;-53
2023/08/18 04:53:45;;;;;;;15.50;13.90;;;;;;;16.51;100.00;101569.09;5093552;28;20040;-52
2023/08/18 04:56:10;;;;;;;14.77;13.25;;;;;;;16.71;100.00;101605.41;5111626;28;20130;-53
2023/08/18 04:58:35;;;;;;;14.75;13.35;;;;;;;16.34;100.00;101529.97;5093777;28;20167;-49
2023/08/18 05:01:01;;;;;;;16.23;14.45;;;;;;;16.50;100.00;101547.88;5111957;28;20051;-50
2023/08/18 05:03:26;;;;;;;14.77;13.52;;;;;;;16.50;100.00;101540.78;5112065;28;20122;-49
2023/08/18 05:06:02;;;;;;;15.07;13.45;;;;;;;16.83;100.00;101592.44;5111356;28;20385;-52
2023/08/18 05:08:28;;;;;;;13.52;12.13;;;;;;;16.89;100.00;101604.59;5111832;28;20035;-54
2023/08/18 05:11:05;;;;;;;14.13;12.13;;;;;;;16.87;100.00;101603.78;5113716;28;20089;-52
2023/08/18 05:13:32;;;;;;;14.38;12.10;;;;;;;16.77;100.00;101578.56;5115562;28;20031;-57
2023/08/18 05:15:59;;;;;;;14.00;12.65;;;;;;;16.93;100.00;101592.00;5097209;28;20028;-53
2023/08/18 05:18:24;;;;;;;13.90;12.48;;;;;;;16.99;100.00;101608.53;5097778;28;20080;-55
2023/08/18 05:20:50;;;;;;;12.93;11.82;;;;;;;16.90;100.00;101573.53;5115596;28;20031;-51
2023/08/18 05:23:16;;;;;;;11.88;10.77;;;;;;;16.97;100.00;101598.91;5115334;28;20063;-55
2023/08/18 05:25:46;;;;;;;12.82;11.45;;;;;;;16.93;100.00;101578.72;5115060;28;20544;-55
2023/08/18 05:28:12;;;;;;;11.68;10.68;;;;;;;16.68;100.00;101536.44;5097361;28;20023;-53
2023/08/18 05:30:37;;;;;;;12.35;11.13;;;;;;;16.63;100.00;101530.50;5115520;28;20035;-54
2023/08/18 05:33:03;;;;;;;13.50;12.27;;;;;;;16.85;100.00;101561.31;5115323;28;20038;-53
2023/08/18 05:35:28;;;;;;;13.27;11.85;;;;;;;16.93;100.00;101576.91;5096481;28;20051;-49
2023/08/18 05:37:54;;;;;;;13.18;11.27;;;;;;;16.52;100.00;101500.84;5096880;28;20143;-55
2023/08/18 05:40:19;;;;;;;12.93;11.00;;;;;;;17.02;100.00;101587.09;5115114;28;20035;-51
2023/08/18 05:42:44;;;;;;;12.55;11.35;;;;;;;17.07;100.00;101586.91;5115126;28;20088;-50
2023/08/18 05:45:10;;;;;;;12.20;10.90;;;;;;;16.21;100.00;101437.63;5114692;28;20040;-52
2023/08/18 05:47:36;;;;;;;13.35;12.05;;;;;;;17.08;100.00;101589.47;5114929;28;20054;-53
2023/08/18 05:50:02;;;;;;;12.18;10.82;;;;;;;16.73;100.00;101510.50;5115110;28;20135;-51
2023/08/18 05:52:27;;;;;;;12.40;10.85;;;;;;;17.14;100.00;101575.88;5096800;28;20027;-52
2023/08/18 05:54:53;;;;;;;12.60;11.38;;;;;;;16.80;100.00;101518.13;5096189;28;20086;-55
2023/08/18 05:57:18;;;;;;;15.75;12.18;;;;;;;17.18;100.00;101580.13;5096517;28;20382;-50
2023/08/18 05:59:43;;;;;;;12.32;11.13;;;;;;;17.29;100.00;101577.81;5114928;28;20092;-54
2023/08/18 06:02:09;;;;;;;15.15;11.85;;;;;;;16.86;100.00;101493.03;5096625;28;20423;-54
2023/08/18 06:04:34;;;;;;;12.27;11.07;;;;;;;17.34;100.00;101583.75;5114317;28;20146;-53
2023/08/18 06:07:00;;;;;;;13.20;11.48;;;;;;;17.22;100.00;101557.75;5096530;28;20031;-55
2023/08/18 06:09:25;;;;;;;12.70;11.38;;;;;;;17.39;100.00;101579.09;5114658;28;20028;-47
2023/08/18 06:11:50;;;;;;;12.13;10.93;;;;;;;17.41;100.00;101579.00;5114759;28;20114;-51
2023/08/18 06:14:16;;;;;;;11.32;10.23;;;;;;;16.87;100.00;101478.78;5114362;28;20036;-56
2023/08/18 06:16:41;;;;;;;13.88;11.02;;;;;;;17.58;100.00;101573.75;5114803;28;20032;-50
2023/08/18 06:19:08;;;;;;;13.32;10.70;;;;;;;17.27;100.00;101515.84;5114892;28;20043;-52
2023/08/18 06:21:33;;;;;;;14.10;11.98;;;;;;;17.68;100.00;101563.50;5113465;28;20039;-56
2023/08/18 06:23:58;;;;;;;14.45;11.32;;;;;;;17.86;100.00;101583.91;5114252;28;20035;-52
2023/08/18 06:26:24;;;;;;;12.20;10.85;;;;;;;17.52;100.00;101498.63;5114346;28;20030;-56
2023/08/18 06:28:49;;;;;;;12.00;10.80;;;;;;;18.04;100.00;101566.94;5114652;28;20119;-54
2023/08/18 06:31:14;;;;;;;12.98;10.80;;;;;;;17.66;100.00;101498.84;5096103;28;20036;-52
2023/08/18 06:33:39;;;;;;;15.77;11.48;;;;;;;18.08;100.00;101576.50;5114097;28;20028;-53
2023/08/18 06:36:05;;;;;;;12.75;11.20;;;;;;;17.94;100.00;101561.25;5114264;28;20122;-54
2023/08/18 06:38:30;;;;;;;12.88;11.57;;;;;;;18.09;100.00;101588.91;5078813;28;20040;-54
2023/08/18 06:40:56;;;;;;;11.27;10.18;;;;;;;17.96;100.00;101569.16;5114014;28;20486;-56
2023/08/18 06:43:21;;;;;;;12.90;11.57;;;;;;;18.03;100.00;101575.91;5114067;28;20028;-52
2023/08/18 06:45:46;;;;;;;12.77;10.85;;;;;;;17.64;100.00;101508.69;5095983;28;20368;-52
2023/08/18 06:48:12;;;;;;;12.90;11.35;;;;;;;17.80;100.00;101530.94;5113719;28;20052;-52
2023/08/18 06:50:40;;;;;;;11.98;10.73;;;;;;;18.19;100.00;101586.59;5113748;28;20075;-54
2023/08/18 06:53:06;;;;;;;14.02;12.55;;;;;;;18.23;100.00;101589.06;5113832;28;20035;-54
2023/08/18 06:55:31;;;;;;;14.68;12.95;;;;;;;18.21;100.00;101584.75;5113978;28;20487;-51
2023/08/18 06:57:57;;;;;;;14.40;12.85;;;;;;;18.18;100.00;101580.44;5113628;28;20435;-51
2023/08/18 07:00:22;;;;;;;13.80;12.52;;;;;;;18.07;100.00;101544.66;5113628;28;20039;-57
2023/08/18 07:02:49;;;;;;;14.73;12.85;;;;;;;18.40;100.00;101593.47;5113654;28;20371;-49
2023/08/18 07:05:16;;;;;;;13.77;12.32;;;;;;;17.94;100.00;101496.47;5095010;28;20510;-48
2023/08/18 07:07:41;;;;;;;17.45;13.75;;;;;;;18.12;100.00;101514.16;5113474;28;20035;-52
2023/08/18 07:10:07;;;;;;;13.73;11.75;;;;;;;18.29;100.00;101523.91;5113682;28;20367;-52
2023/08/18 07:12:33;;;;;;;13.15;11.85;;;;;;;18.79;100.00;101579.84;5113407;28;20400;-46
2023/08/18 07:14:58;;;;;;;13.80;12.40;;;;;;;18.94;100.00;101587.03;5113367;28;20055;-51
2023/08/18 07:17:23;;;;;;;12.40;11.07;;;;;;;19.12;100.00;101585.97;5113238;28;20035;-48
2023/08/18 07:19:49;;;;;;;12.73;11.45;;;;;;;18.80;100.00;101526.41;5113527;28;20035;-52
2023/08/18 07:22:14;;;;;;;12.57;11.27;;;;;;;18.82;100.00;101508.53;5113182;28;20046;-50
2023/08/18 07:24:39;;;;;;;14.20;12.10;;;;;;;19.41;100.00;101592.41;5113380;28;20035;-48
2023/08/18 07:27:05;;;;;;;13.07;11.68;;;;;;;19.41;100.00;101581.72;5112515;28;20028;-51
2023/08/18 07:29:33;;;;;;;14.10;12.60;;;;;;;19.23;100.00;101561.38;5113295;28;20509;-48
2023/08/18 07:31:59;;;;;;;13.52;12.13;;;;;;;19.48;100.00;101583.94;5113393;28;20036;-48
2023/08/18 07:34:24;;;;;;;12.30;11.13;;;;;;;19.20;100.00;101526.84;5112944;28;20152;-52
2023/08/18 07:36:49;;;;;;;12.20;10.73;;;;;;;19.20;100.00;101500.16;5112502;28;20031;-48
2023/08/18 07:39:15;;;;;;;13.40;12.07;;;;;;;19.62;100.00;101585.81;5113100;28;20039;-48
2023/08/18 07:41:40;;;;;;;13.95;12.45;;;;;;;19.03;100.00;101483.28;5112868;28;20035;-50
2023/08/18 07:44:07;;;;;;;13.23;11.93;;;;;;;19.75;100.00;101580.63;5112893;28;20076;-50
2023/08/18 07:46:32;;;;;;;13.32;11.93;;;;;;;19.85;100.00;101573.78;5112472;28;20126;-49
2023/08/18 07:48:58;;;;;;;13.60;12.20;;;;;;;19.90;100.00;101571.69;5112976;28;20157;-50
2023/08/18 07:51:24;;;;;;;13.93;12.48;;;;;;;20.03;100.00;101573.53;5112670;28;20070;-52
2023/08/18 07:53:49;;;;;;;12.68;11.48;;;;;;;19.99;100.00;101569.31;5112895;28;20035;-51
2023/08/18 07:56:14;;;;;;;13.18;11.73;;;;;;;19.98;100.00;101506.16;5112435;28;20036;-52
2023/08/18 07:58:40;;;;;;;12.55;11.32;;;;;;;20.48;100.00;101491.50;5112416;28;20035;-50
2023/08/18 08:01:06;;;;;;;12.63;11.43;;;;;;;20.96;100.00;101492.81;5112471;28;20157;-49
2023/08/18 08:03:32;;;;;;;11.15;10.02;;;;;;;21.82;100.00;101562.06;5112108;28;20114;-51
2023/08/18 08:05:57;;;;;;;11.75;10.55;;;;;;;21.98;100.00;101500.25;5112075;28;20469;-52
2023/08/18 08:08:22;;;;;;;12.98;11.68;;;;;;;22.44;100.00;101574.69;5112451;28;20127;-47
2023/08/18 08:10:48;;;;;;;12.63;10.95;;;;;;;22.43;100.00;101521.16;5112905;28;20039;-49
2023/08/18 08:13:14;;;;;;;11.82;10.70;;;;;;;22.66;100.00;101600.91;5112800;28;20027;-56
2023/08/18 08:15:39;;;;;;;13.52;12.18;;;;;;;22.66;100.00;101590.16;5112216;28;20399;-52
2023/08/18 08:18:04;;;;;;;13.13;11.82;;;;;;;22.83;100.00;101608.63;5112656;28;20043;-49
2023/08/18 08:20:30;;;;;;;12.65;11.40;;;;;;;23.16;100.00;101586.53;5112278;28;20031;-53
2023/08/18 08:22:55;;;;;;;15.45;12.05;;;;;;;23.02;100.00;101564.34;5112142;28;20038;-49
2023/08/18 08:25:20;;;;;;;12.60;11.13;;;;;;;23.95;100.00;101594.06;5112028;28;20028;-51
2023/08/18 08:27:51;;;;;;;15.02;13.52;;;;;;;23.07;100.00;101522.75;5093702;28;20467;-55
2023/08/18 08:30:16;;;;;;;15.60;13.43;;;;;;;23.63;100.00;101572.28;5093955;28;20055;-49
2023/08/18 08:32:41;;;;;;;14.57;13.07;;;;;;;23.64;100.00;101587.47;5094337;28;20060;-47
2023/08/18 08:35:07;;;;;;;13.45;11.57;;;;;;;23.96;100.00;101593.09;5112259;28;20048;-50
2023/08/18 08:37:32;;;;;;;14.23;12.25;;;;;;;23.64;100.00;101531.03;5112318;28;20040;-53
2023/08/18 08:39:57;;;;;;;14.07;12.65;;;;;;;23.80;100.00;101545.00;5112457;28;20259;-51
2023/08/18 08:42:23;;;;;;;12.00;10.80;;;;;;;24.56;100.00;101596.41;5094120;28;20487;-49
2023/08/18 08:44:48;;;;;;;12.00;10.90;;;;;;;25.05;100.00;101600.59;5112299;28;20035;-48
2023/08/18 08:47:14;;;;;;;13.75;10.95;;;;;;;25.62;100.00;101617.44;5116006;28;20514;-50
2023/08/18 08:49:42;;;;;;;12.38;11.18;;;;;;;25.62;100.00;101555.41;5116353;28;20058;-48
2023/08/18 08:52:10;;;;;;;13.45;12.07;;;;;;;26.02;100.00;101560.97;5116713;28;20410;-49
2023/08/18 08:54:41;;;;;;;11.55;10.55;;;;;;;26.19;100.00;101564.94;5098378;28;20027;-51
2023/08/18 08:57:08;;;;;;;14.25;12.77;;;;;;;25.89;100.00;101581.03;5098047;28;20059;-54
2023/08/18 08:59:33;;;;;;;12.48;11.18;;;;;;;26.04;100.00;101621.03;5098090;28;20221;-53
2023/08/18 09:02:02;;;;;;;14.18;12.77;;;;;;;25.61;100.00;101622.94;5097893;28;20126;-49
2023/08/18 09:04:28;;;;;;;12.40;11.20;;;;;;;25.80;100.00;101625.84;5116233;28;20035;-50
2023/08/18 09:06:54;;;;;;;12.32;11.10;;;;;;;25.72;100.00;101612.97;5116260;28;20028;-48
2023/08/18 09:09:19;;;;;;;14.77;13.27;;;;;;;25.06;100.00;101557.38;5116212;28;20081;-56
2023/08/18 09:11:47;;;;;;;15.32;13.93;;;;;;;24.86;100.00;101603.94;5116223;28;20062;-51
2023/08/18 09:14:14;;;;;;;13.95;12.75;;;;;;;24.64;100.00;101553.59;5098318;28;20118;-54
2023/08/18 09:16:41;;;;;;;15.88;14.30;;;;;;;24.14;100.00;101515.53;5097901;28;20043;-52
2023/08/18 09:19:11;;;;;;;15.15;13.65;;;;;;;24.56;100.00;101612.56;5097949;28;20440;-52
2023/08/18 09:21:36;;;;;;;14.23;12.82;;;;;;;24.14;100.00;101555.88;5097645;28;20047;-53
2023/08/18 09:24:02;;;;;;;15.10;13.80;;;;;;;24.28;100.00;101585.25;5115943;28;20031;-51
2023/08/18 09:26:27;;;;;;;16.85;15.05;;;;;;;24.46;100.00;101608.88;5116231;28;20172;-49
2023/08/18 09:28:52;;;;;;;13.38;12.07;;;;;;;24.31;100.00;101609.22;5115880;28;20494;-48
2023/08/18 09:31:21;;;;;;;14.90;13.48;;;;;;;24.09;100.00;101548.13;5115847;28;20036;-51
2023/08/18 09:33:46;;;;;;;16.65;14.90;;;;;;;23.74;100.00;101533.84;5115741;28;20023;-51
2023/08/18 09:36:12;;;;;;;15.88;14.27;;;;;;;23.70;100.00;101592.34;5115754;28;20038;-50
2023/08/18 09:38:40;;;;;;;15.88;14.43;;;;;;;23.72;100.00;101601.19;5115551;28;20028;-48
2023/08/18 09:41:07;;;;;;;15.02;13.60;;;;;;;23.83;100.00;101574.34;5115524;28;20040;-51
2023/08/18 09:43:32;;;;;;;15.77;14.25;;;;;;;23.92;100.00;101529.75;5115638;28;20035;-49
2023/08/18 09:45:58;;;;;;;16.30;14.65;;;;;;;23.72;100.00;101525.03;5096819;28;20035;-52
2023/08/18 09:48:28;;;;;;;16.58;14.88;;;;;;;24.10;100.00;101587.53;5115346;28;20047;-48
2023/08/18 09:50:54;;;;;;;16.35;14.75;;;;;;;24.19;100.00;101585.97;5097186;28;20032;-54
2023/08/18 09:53:22;;;;;;;16.33;14.68;;;;;;;24.47;100.00;101577.44;5096529;28;20081;-48
2023/08/18 09:55:49;;;;;;;16.02;14.57;;;;;;;24.47;100.00;101519.09;5112961;28;20044;-49
2023/08/18 09:58:28;;;;;;;15.70;14.02;;;;;;;25.51;100.00;101593.19;5095789;28;20023;-50
2023/08/18 10:00:57;;;;;;;16.80;15.10;;;;;;;25.47;100.00;101516.25;5113711;28;20023;-49
2023/08/18 10:03:26;;;;;;;15.90;14.40;;;;;;;25.63;100.00;101572.44;5095177;28;20055;-52
2023/08/18 10:05:52;;;;;;;16.75;14.82;;;;;;;25.23;100.00;101520.09;5097093;28;20042;-56
2023/08/18 10:08:18;;;;;;;16.00;14.50;;;;;;;25.23;100.00;101509.34;5096427;28;20126;-51
2023/08/18 10:10:45;;;;;;;20.40;13.88;;;;;;;25.95;100.00;101548.97;5096763;28;20032;-52
2023/08/18 10:13:11;;;;;;;17.88;15.07;;;;;;;26.34;100.00;101536.63;5115024;28;20035;-53
2023/08/18 10:15:37;;;;;;;16.00;14.45;;;;;;;26.93;100.00;101511.59;5096896;28;20024;-53
2023/08/18 10:18:07;;;;;;;16.00;14.25;;;;;;;27.34;100.00;101581.66;5079867;28;20038;-49
2023/08/18 10:20:33;;;;;;;15.90;14.38;;;;;;;26.72;100.00;101526.00;5097243;28;20397;-47
2023/08/18 10:22:58;;;;;;;14.73;13.38;;;;;;;26.99;100.00;101570.47;5114609;28;20039;-47
2023/08/18 10:25:25;;;;;;;17.40;15.55;;;;;;;26.56;100.00;101522.94;5114779;28;20032;-50
2023/08/18 10:27:50;;;;;;;15.77;14.18;;;;;;;26.74;100.00;101577.16;5096758;28;20230;-50
2023/08/18 10:30:29;;;;;;;18.67;16.35;;;;;;;26.59;100.00;101582.06;5096317;28;20027;-51
2023/08/18 10:33:06;;;;;;;17.73;16.00;;;;;;;25.80;100.00;101509.88;5114560;28;20055;-53
2023/08/18 10:35:33;;;;;;;17.92;16.27;;;;;;;25.24;100.00;101473.31;5114678;28;20038;-49
2023/08/18 10:38:00;;;;;;;17.98;16.17;;;;;;;24.90;100.00;101468.03;5096403;28;20044;-48
2023/08/18 10:40:29;;;;;;;19.15;17.35;;;;;;;25.12;100.00;101513.78;5114178;28;20098;-48
2023/08/18 10:43:05;;;;;;;17.20;15.38;;;;;;;25.24;100.00;101486.81;5114296;28;20092;-48
2023/08/18 10:45:31;;;;;;;18.25;16.35;;;;;;;25.75;100.00;101528.25;5095666;28;20045;-50
2023/08/18 10:47:58;;;;;;;20.05;17.27;;;;;;;25.86;100.00;101490.44;5113825;28;20048;-52
2023/08/18 10:50:24;;;;;;;18.05;16.35;;;;;;;26.17;100.00;101532.72;5113696;28;20066;-49
2023/08/18 10:52:53;;;;;;;17.70;15.95;;;;;;;26.15;100.00;101552.72;5113331;28;20121;-47
2023/08/18 10:55:18;;;;;;;19.92;17.45;;;;;;;25.75;100.00;101490.50;5095482;28;20401;-50
2023/08/18 10:57:46;;;;;;;20.45;18.55;;;;;;;25.89;100.00;101522.53;5095738;28;20112;-51